EDT,Max TemperatureF,Mean TemperatureF,Min TemperatureF,Max Dew PointF,MeanDew PointF,Min DewpointF,Max Humidity, Mean Humidity, Min Humidity, Max Sea Level PressureIn, Mean Sea Level PressureIn, Min Sea Level PressureIn, Max VisibilityMiles, Mean VisibilityMiles, Min VisibilityMiles, Max Wind SpeedMPH, Mean Wind SpeedMPH, Max Gust SpeedMPH,PrecipitationIn, CloudCover, Events, WindDirDegrees
2013-3-1,59,52,45,36,34,32,70,55,40,30.02,29.97,29.92,10,10,10,17,9,22,0.00,6,,301
2013-3-2,54,44,34,36,31,27,92,65,38,30.04,30.00,29.95,10,10,8,26,11,36,0.00,2,,281
2013-3-3,47,39,31,30,27,24,89,66,42,30.14,30.05,30.01,10,10,10,21,9,28,0.00,3,,285
2013-3-4,63,46,29,40,28,20,85,55,25,30.24,30.17,30.13,10,10,10,15,5,22,0.00,1,,279
2013-3-5,77,58,38,57,44,34,89,57,25,30.18,30.05,29.89,10,10,10,24,10,31,0.00,3,,219
2013-3-6,65,54,43,59,34,25,78,54,30,30.15,30.02,29.87,10,10,3,29,15,39,0.06,2,Rain,297
2013-3-7,64,49,34,42,34,28,89,60,30,30.25,30.20,30.15,10,10,8,12,4,18,0.00,1,,338
2013-3-8,68,52,35,46,40,34,100,66,32,30.25,30.22,30.18,10,8,4,16,3,21,0.00,0,,65
2013-3-9,67,52,36,47,42,36,100,72,44,30.30,30.25,30.20,10,9,5,16,5,22,0.00,4,,64
2013-3-10,75,59,42,55,50,41,100,73,46,30.24,30.18,30.14,10,10,10,20,7,26,0.00,3,,101
2013-3-11,77,63,49,59,54,49,93,68,43,30.14,30.02,29.91,10,10,7,17,8,24,0.01,5,,149
2013-3-12,68,59,50,64,57,44,100,73,45,30.03,29.91,29.85,10,8,1,13,9,21,0.03,7,Rain,238
2013-3-13,70,59,47,44,34,28,80,51,22,30.20,30.12,30.03,10,10,10,22,10,28,0.00,1,,308
2013-3-14,62,50,37,38,29,25,92,59,25,30.32,30.25,30.19,10,10,10,16,6,21,0.00,0,,349
2013-3-15,73,54,34,40,34,30,92,59,25,30.29,30.22,30.12,10,10,10,13,4,16,0.00,0,,265
2013-3-16,80,62,44,49,44,38,92,60,28,30.15,30.09,30.00,10,10,10,22,10,29,0.00,0,,243
2013-3-17,78,61,43,52,46,40,92,60,27,30.13,30.06,29.99,10,10,7,15,5,21,0.00,5,,213
2013-3-18,81,70,59,61,58,51,90,69,48,30.07,29.98,29.88,10,10,10,20,6,24,0.00,7,,208
2013-3-19,80,67,53,62,56,50,93,69,45,30.02,29.97,29.90,10,10,10,28,7,36,T,5,Rain,297
2013-3-20,64,55,45,52,48,45,100,80,60,30.04,29.96,29.87,10,9,2,18,6,22,0.20,6,Rain-Thunderstorm,23
2013-3-21,68,53,38,44,31,20,100,58,16,29.97,29.92,29.87,10,10,10,20,7,30,0.00,3,,297
2013-3-22,66,54,41,46,36,28,83,57,31,30.08,30.02,29.96,10,10,10,16,6,20,0.00,5,,54
2013-3-23,70,60,49,65,57,47,100,89,78,30.01,29.88,29.81,10,5,0,25,6,31,2.31,7,Rain-Thunderstorm,73
2013-3-24,85,73,61,70,65,58,100,74,48,29.79,29.63,29.52,10,8,0,32,12,49,0.46,6,Fog-Rain-Thunderstorm,210
2013-3-25,67,57,46,59,34,25,78,51,24,30.04,29.86,29.63,10,10,10,28,15,37,0.00,0,,287
2013-3-26,55,46,36,33,26,23,82,57,32,30.27,30.14,30.06,10,10,10,25,10,36,0.00,0,,303
2013-3-27,60,47,34,36,30,25,79,55,30,30.32,30.27,30.22,10,10,10,17,5,24,0.00,0,,306
2013-3-28,67,51,35,42,33,24,92,56,20,30.32,30.27,30.22,10,10,10,16,4,22,0.00,0,,351
2013-3-29,73,56,38,45,38,31,93,58,22,30.34,30.28,30.22,10,10,7,14,4,17,0.00,0,,46
2013-3-30,77,59,41,49,41,33,96,58,20,30.27,30.19,30.11,10,10,8,18,5,24,0.00,3,,218
2013-3-31,80,66,51,54,50,44,77,58,39,30.13,30.06,29.98,10,10,10,24,10,31,0.00,5,,213